Main page
METAR-TAF:

METAR-TAF

Airports :

Rugby Municipal Airport

Rugby, North Dakota, United States

latitude: 48-23-25N, longitude: 100-01-27W, elevation: 472 m

Current weather observation

The report was made 22 minutes ago, at 16:35 UTC
Wind 10 kt from the North
Temperature -4°C
Humidity 93%
Pressure 1017 hPa
Visibility: 16.1 km
Broken clouds at a height of 900 ft
Broken clouds at a height of 3000 ft
Broken clouds at a height of 5500 ft

METAR: KRUG 051635Z AUTO 35010KT 10SM BKN009 BKN030 BKN055 M04/M05 A3002 RMK AO2

Time: 10:57 (16:57 UTC)


TAF: missing

Weather observations and forecasts of more than 4000 airports (METAR and TAF reports).

The available stations are represented by yellow and red dots on the map.

Hover mouse over dot to see the name of the station.

Then click to see weather observations and forecasts.

To change the map : click on the green buttons with a black cross to zoom in, on the green button with a dash to zoom out, or on the green arrows for adjacent maps.


METAR-TAF: